This is the latest recevied weather packets stored in our database for station/object OK3MS-5. If no packets are shown the sender has not sent any weather packets the latest 1 day(s).
| Time | Temp. | Humidity | Pressure | Rain* | Wind** | Luminosity | Snow |
|---|---|---|---|---|---|---|---|
| 1778053507 | 16.67° C | 68% | 1006.1 hPa | 0 mm | - | 547 W/m² | - |
| 1778053206 | 16.67° C | 70% | 1006 hPa | 0 mm | - | 490 W/m² | - |
| 1778052905 | 16.11° C | 70% | 1006.1 hPa | 0 mm | - | 390 W/m² | - |
| 1778052304 | 16.67° C | 70% | 1006.1 hPa | 0 mm | - | 407 W/m² | - |
| 1778051402 | 16.11° C | 72% | 1006.4 hPa | 0 mm | - | 397 W/m² | - |
| 1778050207 | 15.56° C | 74% | 1006.4 hPa | 0 mm | - | 327 W/m² | - |
| 1778049302 | 15° C | 79% | 1006.6 hPa | 0 mm | - | 296 W/m² | - |
| 1778048703 | 15° C | 81% | 1006.8 hPa | 0 mm | - | 79 W/m² | - |
| 1778047805 | 13.89° C | 83% | 1006.8 hPa | 0 mm | - | 81 W/m² | - |
| 1778047506 | 13.89° C | 84% | 1006.9 hPa | 0 mm | - | 99 W/m² | - |
| 1778045404 | 13.33° C | 88% | 1006.9 hPa | 0 mm | - | 122 W/m² | - |
| 1778045103 | 12.78° C | 89% | 1006.9 hPa | 0 mm | - | 164 W/m² | - |
| 1778043903 | 11.67° C | 92% | 1007.2 hPa | 0 mm | - | 50 W/m² | - |
| 1778043010 | 11.11° C | 95% | 1007.2 hPa | 0 mm | - | 42 W/m² | - |
| 1778041509 | 9.44° C | 99% | 1007.6 hPa | 0 mm | - | 34 W/m² | - |
| 1778040306 | 8.89° C | 99% | 1007.4 hPa | 0 mm | - | 16 W/m² | - |
| 1778040009 | 8.89° C | 99% | 1007.4 hPa | 0 mm | - | 14 W/m² | - |
| 1778039412 | 9.44° C | 99% | 1007.3 hPa | 0 mm | - | 9 W/m² | - |
| 1778038205 | 8.89° C | 99% | 1007 hPa | 0 mm | - | 2 W/m² | - |
| 1778037305 | 9.44° C | 99% | 1007 hPa | 0 mm | - | 0 W/m² | - |
| 1778037009 | 9.44° C | 99% | 1006.8 hPa | 0 mm | - | 0 W/m² | - |
| 1778036705 | 9.44° C | 99% | 1006.9 hPa | 0 mm | - | 0 W/m² | - |
| 1778035809 | 10° C | 99% | 1006.8 hPa | 0 mm | - | 0 W/m² | - |
| 1778035507 | 10° C | 99% | 1006.9 hPa | 0 mm | - | 0 W/m² | - |
| 1778035209 | 10° C | 99% | 1006.9 hPa | 0 mm | - | 0 W/m² | - |
* Rain latest hour (hover to see other rain measurements)
** Current wind speed in m/s (hover to see current wind gust speed)